createdAt,value
2023-03-05T00:00:00.316Z,17.73
2023-03-05T00:01:00.342Z,17.63
2023-03-05T00:02:00.363Z,17.70
2023-03-05T00:03:00.427Z,17.68
2023-03-05T00:04:00.718Z,17.76
2023-03-05T00:05:00.438Z,17.68
2023-03-05T00:06:00.496Z,17.70
2023-03-05T00:07:00.498Z,17.66
2023-03-05T00:08:00.516Z,17.76
2023-03-05T00:09:00.656Z,17.74
2023-03-05T00:10:00.574Z,17.73
2023-03-05T00:11:00.914Z,17.76
2023-03-05T00:12:00.633Z,17.74
2023-03-05T00:13:00.649Z,17.76
2023-03-05T00:14:00.694Z,17.70
2023-03-05T00:15:00.715Z,17.74
2023-03-05T00:16:00.783Z,17.68
2023-03-05T00:17:00.757Z,17.71
2023-03-05T00:18:01.089Z,17.71
2023-03-05T00:19:00.814Z,17.74
2023-03-05T00:20:02.320Z,17.68
2023-03-05T00:21:00.890Z,17.68
2023-03-05T00:22:00.913Z,17.71
2023-03-05T00:23:00.923Z,17.71
2023-03-05T00:24:00.962Z,17.70
2023-03-05T00:25:01.277Z,17.66
2023-03-05T00:26:01.010Z,17.63
2023-03-05T00:27:01.039Z,17.65
2023-03-05T00:28:01.069Z,17.66
2023-03-05T00:29:01.118Z,17.71
2023-03-05T00:30:01.240Z,17.66
2023-03-05T00:31:01.214Z,17.71
2023-03-05T00:32:01.520Z,17.68
2023-03-05T00:33:01.202Z,17.71
2023-03-05T00:34:01.223Z,17.62
2023-03-05T00:35:01.247Z,17.66
2023-03-05T00:36:01.340Z,17.71
2023-03-05T00:37:01.301Z,17.70
2023-03-05T00:38:01.370Z,17.73
2023-03-05T00:39:01.365Z,17.66
2023-03-05T00:40:01.515Z,17.73
2023-03-05T00:41:01.418Z,17.73
2023-03-05T00:42:01.447Z,17.60
2023-03-05T00:43:01.578Z,17.66
2023-03-05T00:44:01.496Z,17.73
2023-03-05T00:45:01.836Z,17.73
2023-03-05T00:46:01.605Z,17.65
2023-03-05T00:47:01.578Z,17.74
2023-03-05T00:48:01.610Z,17.70
2023-03-05T00:49:01.699Z,17.65
2023-03-05T00:50:01.659Z,17.68
2023-03-05T00:51:01.687Z,17.65
2023-03-05T00:52:02.014Z,17.70
2023-03-05T00:53:01.748Z,17.71
2023-03-05T00:54:01.791Z,17.71
2023-03-05T00:55:01.811Z,17.73
2023-03-05T00:57:01.853Z,17.65
2023-03-05T00:58:01.869Z,17.73
2023-03-05T00:59:02.207Z,17.66
2023-03-05T01:00:01.922Z,17.66
2023-03-05T01:01:01.952Z,17.73
2023-03-05T01:02:02.075Z,17.66
2023-03-05T01:03:02.008Z,17.66
2023-03-05T01:04:02.049Z,17.66
2023-03-05T01:05:02.396Z,17.66
2023-03-05T01:07:02.106Z,17.63
2023-03-05T01:09:02.171Z,17.65
2023-03-05T01:10:02.256Z,17.71
2023-03-05T01:11:02.610Z,17.66
2023-03-05T01:12:02.244Z,17.68
2023-03-05T01:14:02.293Z,17.66
2023-03-05T01:15:02.424Z,17.62
2023-03-05T01:16:02.383Z,17.66
2023-03-05T01:17:02.668Z,17.62
2023-03-05T01:18:02.408Z,17.63
2023-03-05T01:19:02.422Z,17.68
2023-03-05T01:20:02.446Z,17.71
2023-03-05T01:21:02.475Z,17.68
2023-03-05T01:22:02.507Z,17.70
2023-03-05T01:23:02.521Z,17.66
2023-03-05T01:24:02.856Z,17.68
2023-03-05T01:25:02.585Z,17.57
2023-03-05T01:26:02.640Z,17.65
2023-03-05T01:27:02.641Z,17.55
2023-03-05T01:28:02.673Z,17.66
2023-03-05T01:29:02.691Z,17.62
2023-03-05T01:30:02.732Z,17.62
2023-03-05T01:31:03.046Z,17.63
2023-03-05T01:32:02.845Z,17.66
2023-03-05T01:33:02.797Z,17.63
2023-03-05T01:34:02.820Z,17.63
2023-03-05T01:35:02.843Z,17.63
2023-03-05T01:36:02.877Z,17.62
2023-03-05T01:37:02.950Z,17.63
2023-03-05T01:38:03.186Z,17.55
2023-03-05T01:39:02.961Z,17.71
2023-03-05T01:40:03.003Z,17.60
2023-03-05T01:41:03.010Z,17.73
2023-03-05T01:42:03.066Z,17.63
2023-03-05T01:43:03.077Z,17.62
2023-03-05T01:44:03.113Z,17.63
2023-03-05T01:45:03.434Z,17.58
2023-03-05T01:46:03.199Z,17.58
2023-03-05T01:47:03.185Z,17.63
2023-03-05T01:48:03.207Z,17.62
2023-03-05T01:49:03.229Z,17.60
2023-03-05T01:50:03.266Z,17.60
2023-03-05T01:51:03.286Z,17.60
2023-03-05T01:52:03.614Z,17.57
2023-03-05T01:53:03.343Z,17.60
2023-03-05T01:54:03.377Z,17.60
2023-03-05T01:55:03.389Z,17.55
2023-03-05T01:56:03.426Z,17.63
2023-03-05T01:57:03.444Z,17.57
2023-03-05T01:58:03.512Z,17.57
2023-03-05T01:59:03.858Z,17.62
2023-03-05T02:00:03.535Z,17.62
2023-03-05T02:01:03.582Z,17.57
2023-03-05T02:02:03.594Z,17.53
2023-03-05T02:03:03.614Z,17.62
2023-03-05T02:04:03.692Z,17.58
2023-03-05T02:05:03.693Z,17.58
2023-03-05T02:06:03.946Z,17.55
2023-03-05T02:08:03.748Z,17.55
2023-03-05T02:09:03.770Z,17.57
2023-03-05T02:10:03.808Z,17.55
2023-03-05T02:11:03.831Z,17.49
2023-03-05T02:12:03.883Z,17.58
2023-03-05T02:13:04.196Z,17.51
2023-03-05T02:14:03.933Z,17.49
2023-03-05T02:15:04.035Z,17.49
2023-03-05T02:16:04.065Z,17.51
2023-03-05T02:18:04.025Z,17.58
2023-03-05T02:19:04.050Z,17.58
2023-03-05T02:20:04.379Z,17.53
2023-03-05T02:21:04.113Z,17.47
2023-03-05T02:22:04.135Z,17.55
2023-03-05T02:23:04.155Z,17.47
2023-03-05T02:24:04.184Z,17.54
2023-03-05T02:25:04.217Z,17.57
2023-03-05T02:26:04.243Z,17.51
2023-03-05T02:27:04.567Z,17.49
2023-03-05T02:28:04.295Z,17.51
2023-03-05T02:29:04.326Z,17.51
2023-03-05T02:30:04.370Z,17.55
2023-03-05T02:31:04.383Z,17.51
2023-03-05T02:32:04.574Z,17.43
2023-03-05T02:33:04.444Z,17.49
2023-03-05T02:34:04.717Z,17.49
2023-03-05T02:35:04.510Z,17.49
2023-03-05T02:36:04.526Z,17.49
2023-03-05T02:37:04.749Z,17.43
2023-03-05T02:38:04.575Z,17.43
2023-03-05T02:39:04.589Z,17.55
2023-03-05T02:40:04.619Z,17.53
2023-03-05T02:41:04.899Z,17.46
2023-03-05T02:42:04.670Z,17.43
2023-03-05T02:44:04.724Z,17.46
2023-03-05T02:45:04.755Z,17.40
2023-03-05T02:46:04.881Z,17.47
2023-03-05T02:47:04.812Z,17.47
2023-03-05T02:48:05.144Z,17.46
2023-03-05T02:49:04.971Z,17.49
2023-03-05T02:50:04.997Z,17.53
2023-03-05T02:51:04.917Z,17.53
2023-03-05T02:52:04.974Z,17.46
2023-03-05T02:53:04.985Z,17.51
2023-03-05T02:54:05.309Z,17.43
2023-03-05T02:55:05.042Z,17.42
2023-03-05T02:56:05.160Z,17.43
2023-03-05T02:57:05.100Z,17.38
2023-03-05T02:58:05.187Z,17.39
2023-03-05T02:59:05.163Z,17.42
2023-03-05T03:00:05.510Z,17.45
2023-03-05T03:01:05.227Z,17.42
2023-03-05T03:02:05.237Z,17.42
2023-03-05T03:03:05.266Z,17.40
2023-03-05T03:04:05.280Z,17.45
2023-03-05T03:05:05.307Z,17.42
2023-03-05T03:06:05.732Z,17.46
2023-03-05T03:07:05.441Z,17.43
2023-03-05T03:08:05.380Z,17.42
2023-03-05T03:09:05.435Z,17.39
2023-03-05T03:10:05.445Z,17.36
2023-03-05T03:11:05.465Z,17.33
2023-03-05T03:12:05.494Z,17.46
2023-03-05T03:13:05.822Z,17.40
2023-03-05T03:14:05.549Z,17.36
2023-03-05T03:15:05.569Z,17.38
2023-03-05T03:16:05.599Z,17.36
2023-03-05T03:17:05.723Z,17.42
2023-03-05T03:18:05.682Z,17.43
2023-03-05T03:19:05.680Z,17.40
2023-03-05T03:20:06.010Z,17.40
2023-03-05T03:22:05.841Z,17.40
2023-03-05T03:23:06.653Z,17.38
2023-03-05T03:24:05.819Z,17.46
2023-03-05T03:25:05.845Z,17.38
2023-03-05T03:26:05.880Z,17.39
2023-03-05T03:27:06.204Z,17.42
2023-03-05T03:28:05.924Z,17.39
2023-03-05T03:29:06.072Z,17.38
2023-03-05T03:30:06.038Z,17.36
2023-03-05T03:31:06.116Z,17.38
2023-03-05T03:32:06.185Z,17.42
2023-03-05T03:33:06.084Z,17.43
2023-03-05T03:34:06.409Z,17.38
2023-03-05T03:35:06.133Z,17.40
2023-03-05T03:36:06.150Z,17.38
2023-03-05T03:37:06.180Z,17.38
2023-03-05T03:38:06.300Z,17.35
2023-03-05T03:39:06.232Z,17.39
2023-03-05T03:40:06.256Z,17.43
2023-03-05T03:41:06.810Z,17.43
2023-03-05T03:42:06.312Z,17.45
2023-03-05T03:43:06.341Z,17.40
2023-03-05T03:44:06.363Z,17.40
2023-03-05T03:45:06.386Z,17.38
2023-03-05T03:46:06.530Z,17.36
2023-03-05T03:47:06.452Z,17.36
2023-03-05T03:48:06.874Z,17.38
2023-03-05T03:49:06.514Z,17.40
2023-03-05T03:50:06.566Z,17.36
2023-03-05T03:52:06.613Z,17.36
2023-03-05T03:53:06.610Z,17.35
2023-03-05T03:54:06.650Z,17.43
2023-03-05T03:55:07.075Z,17.36
2023-03-05T03:56:06.690Z,17.40
2023-03-05T03:57:06.720Z,17.45
2023-03-05T03:58:06.745Z,17.40
2023-03-05T03:59:06.780Z,17.30
2023-03-05T04:00:06.806Z,17.38
2023-03-05T04:01:06.835Z,17.39
2023-03-05T04:02:07.203Z,17.43
2023-03-05T04:03:06.878Z,17.36
2023-03-05T04:04:07.092Z,17.43
2023-03-05T04:06:06.990Z,17.42
2023-03-05T04:07:06.988Z,17.35
2023-03-05T04:08:07.028Z,17.33
2023-03-05T04:09:07.347Z,17.42
2023-03-05T04:10:07.078Z,17.40
2023-03-05T04:11:07.097Z,17.40
2023-03-05T04:12:07.125Z,17.42
2023-03-05T04:13:07.156Z,17.42
2023-03-05T04:15:07.210Z,17.38
2023-03-05T04:16:07.641Z,17.39
2023-03-05T04:17:07.267Z,17.35
2023-03-05T04:18:07.301Z,17.43
2023-03-05T04:19:07.315Z,17.39
2023-03-05T04:20:07.343Z,17.35
2023-03-05T04:21:07.372Z,17.38
2023-03-05T04:22:07.423Z,17.46
2023-03-05T04:23:07.724Z,17.45
2023-03-05T04:24:07.475Z,17.40
2023-03-05T04:25:07.489Z,17.28
2023-03-05T04:26:07.524Z,17.43
2023-03-05T04:27:07.532Z,17.43
2023-03-05T04:28:07.571Z,17.39
2023-03-05T04:29:07.598Z,17.43
2023-03-05T04:30:07.927Z,17.40
2023-03-05T04:32:07.681Z,17.36
2023-03-05T04:34:07.722Z,17.40
2023-03-05T04:35:07.747Z,17.36
2023-03-05T04:36:07.803Z,17.38
2023-03-05T04:37:08.109Z,17.43
2023-03-05T04:38:07.845Z,17.42
2023-03-05T04:40:07.887Z,17.33
2023-03-05T04:41:07.906Z,17.43
2023-03-05T04:42:07.935Z,17.40
2023-03-05T04:43:07.988Z,17.32
2023-03-05T04:44:08.290Z,17.40
2023-03-05T04:45:08.016Z,17.28
2023-03-05T04:46:08.078Z,17.32
2023-03-05T04:47:08.068Z,17.40
2023-03-05T04:48:08.101Z,17.28
2023-03-05T04:49:08.127Z,17.33
2023-03-05T04:50:08.502Z,17.28
2023-03-05T04:51:08.192Z,17.33
2023-03-05T04:52:08.209Z,17.30
2023-03-05T04:53:08.236Z,17.35
2023-03-05T04:54:08.280Z,17.30
2023-03-05T04:55:08.286Z,17.28
2023-03-05T04:56:08.622Z,17.30
2023-03-05T04:57:08.342Z,17.32
2023-03-05T04:58:08.371Z,17.33
2023-03-05T04:59:08.414Z,17.30
2023-03-05T05:00:08.423Z,17.33
2023-03-05T05:01:08.473Z,17.33
2023-03-05T05:02:08.783Z,17.32
2023-03-05T05:03:08.568Z,17.35
2023-03-05T05:04:08.544Z,17.27
2023-03-05T05:05:08.566Z,17.27
2023-03-05T05:06:08.613Z,17.33
2023-03-05T05:07:08.744Z,17.32
2023-03-05T05:08:08.638Z,17.35
2023-03-05T05:09:08.975Z,17.35
2023-03-05T05:10:08.719Z,17.35
2023-03-05T05:12:08.765Z,17.32
2023-03-05T05:13:08.782Z,17.28
2023-03-05T05:14:08.868Z,17.30
2023-03-05T05:15:08.846Z,17.36
2023-03-05T05:16:09.215Z,17.27
2023-03-05T05:17:08.902Z,17.32
2023-03-05T05:18:09.018Z,17.32
2023-03-05T05:19:08.978Z,17.30
2023-03-05T05:20:09.068Z,17.28
2023-03-05T05:21:08.998Z,17.30
2023-03-05T05:22:09.034Z,17.36
2023-03-05T05:23:09.362Z,17.35
2023-03-05T05:24:09.104Z,17.33
2023-03-05T05:25:09.108Z,17.28
2023-03-05T05:27:09.178Z,17.32
2023-03-05T05:28:09.248Z,17.30
2023-03-05T05:29:09.240Z,17.33
2023-03-05T05:30:09.501Z,17.35
2023-03-05T05:31:09.334Z,17.35
2023-03-05T05:32:09.309Z,17.33
2023-03-05T05:33:09.329Z,17.30
2023-03-05T05:34:09.366Z,17.35
2023-03-05T05:35:09.379Z,17.32
2023-03-05T05:36:09.510Z,17.36
2023-03-05T05:37:09.744Z,17.28
2023-03-05T05:38:09.471Z,17.30
2023-03-05T05:39:09.501Z,17.30
2023-03-05T05:40:09.574Z,17.30
2023-03-05T05:41:09.547Z,17.33
2023-03-05T05:42:09.579Z,17.27
2023-03-05T05:43:09.839Z,17.32
2023-03-05T05:44:09.933Z,17.32
2023-03-05T05:45:09.955Z,17.30
2023-03-05T05:46:09.838Z,17.28
2023-03-05T05:50:09.893Z,17.35
2023-03-05T05:51:10.076Z,17.32
2023-03-05T05:52:09.850Z,17.35
2023-03-05T05:53:09.882Z,17.35
2023-03-05T05:54:09.914Z,17.28
2023-03-05T05:55:09.939Z,17.32
2023-03-05T05:56:09.966Z,17.35
2023-03-05T05:57:09.997Z,17.33
2023-03-05T05:58:10.320Z,17.28
2023-03-05T05:59:10.053Z,17.32
2023-03-05T06:00:10.088Z,17.30
2023-03-05T06:01:10.108Z,17.35
2023-03-05T06:02:10.177Z,17.28
2023-03-05T06:03:10.303Z,17.28
2023-03-05T06:04:10.203Z,17.30
2023-03-05T06:05:10.505Z,17.33
2023-03-05T06:06:10.228Z,17.30
2023-03-05T06:07:10.311Z,17.30
2023-03-05T06:08:10.282Z,17.30
2023-03-05T06:09:10.311Z,17.28
2023-03-05T06:10:10.359Z,17.38
2023-03-05T06:11:10.364Z,17.32
2023-03-05T06:12:10.642Z,17.35
2023-03-05T06:13:10.436Z,17.28
2023-03-05T06:14:10.454Z,17.35
2023-03-05T06:15:10.515Z,17.33
2023-03-05T06:16:10.523Z,17.28
2023-03-05T06:17:12.925Z,17.33
2023-03-05T06:18:10.716Z,17.33
2023-03-05T06:19:10.841Z,17.32
2023-03-05T06:20:10.826Z,17.35
2023-03-05T06:21:10.648Z,17.36
2023-03-05T06:22:10.663Z,17.30
2023-03-05T06:23:10.688Z,17.33
2023-03-05T06:24:10.717Z,17.33
2023-03-05T06:25:10.746Z,17.30
2023-03-05T06:27:11.204Z,17.36
2023-03-05T06:28:10.835Z,17.27
2023-03-05T06:29:10.855Z,17.32
2023-03-05T06:30:12.462Z,17.32
2023-03-05T06:31:11.028Z,17.33
2023-03-05T06:32:10.959Z,17.32
2023-03-05T06:33:10.970Z,17.33
2023-03-05T06:34:11.294Z,17.30
2023-03-05T06:35:11.123Z,17.28
2023-03-05T06:36:11.054Z,17.27
2023-03-05T06:37:11.183Z,17.30
2023-03-05T06:38:11.101Z,17.33
2023-03-05T06:39:11.130Z,17.36
2023-03-05T06:40:11.192Z,17.30
2023-03-05T06:41:11.431Z,17.30
2023-03-05T06:42:11.211Z,17.30
2023-03-05T06:43:11.247Z,17.33
2023-03-05T06:44:11.262Z,17.32
2023-03-05T06:45:11.286Z,17.30
2023-03-05T06:46:11.402Z,17.30
2023-03-05T06:47:11.373Z,17.32
2023-03-05T06:48:11.683Z,17.28
2023-03-05T06:49:11.402Z,17.32
2023-03-05T06:50:11.480Z,17.40
2023-03-05T06:51:11.461Z,17.32
2023-03-05T06:52:11.503Z,17.33
2023-03-05T06:53:11.508Z,17.33
2023-03-05T06:54:11.547Z,17.33
2023-03-05T06:55:11.860Z,17.35
2023-03-05T06:56:11.595Z,17.35
2023-03-05T06:57:11.637Z,17.28
2023-03-05T06:58:11.654Z,17.35
2023-03-05T06:59:11.687Z,17.36
2023-03-05T07:00:11.718Z,17.45
2023-03-05T07:01:11.763Z,17.33
2023-03-05T07:02:12.230Z,17.36
2023-03-05T07:04:11.930Z,17.46
2023-03-05T07:05:11.838Z,17.45
2023-03-05T07:06:11.858Z,17.30
2023-03-05T07:07:11.903Z,17.36
2023-03-05T07:08:11.934Z,17.39
2023-03-05T07:09:12.247Z,17.33
2023-03-05T07:12:12.025Z,17.38
2023-03-05T07:13:12.053Z,17.39
2023-03-05T07:14:12.074Z,17.38
2023-03-05T07:15:12.406Z,17.39
2023-03-05T07:16:12.242Z,17.39
2023-03-05T07:17:12.171Z,17.42
2023-03-05T07:18:12.205Z,17.42
2023-03-05T07:19:12.222Z,17.35
2023-03-05T07:20:12.274Z,17.42
2023-03-05T07:21:12.571Z,17.39
2023-03-05T07:22:12.302Z,17.39
2023-03-05T07:23:12.332Z,17.42
2023-03-05T07:24:12.369Z,17.39
2023-03-05T07:25:12.382Z,17.39
2023-03-05T07:27:12.679Z,17.40
2023-03-05T07:28:12.460Z,17.35
2023-03-05T07:29:12.487Z,17.39
2023-03-05T07:30:12.517Z,17.39
2023-03-05T07:31:12.624Z,17.39
2023-03-05T07:32:12.612Z,17.36
2023-03-05T07:33:12.604Z,17.38
2023-03-05T07:34:12.987Z,17.40
2023-03-05T07:35:12.685Z,17.40
2023-03-05T07:36:12.714Z,17.39
2023-03-05T07:37:12.706Z,17.40
2023-03-05T07:38:12.733Z,17.39
2023-03-05T07:39:12.776Z,17.42
2023-03-05T07:40:12.794Z,17.40
2023-03-05T07:41:13.072Z,17.43
2023-03-05T07:43:12.873Z,17.38
2023-03-05T07:44:12.894Z,17.40
2023-03-05T07:45:12.936Z,17.40
2023-03-05T07:47:13.298Z,17.40
2023-03-05T07:48:13.010Z,17.43
2023-03-05T07:49:13.038Z,17.38
2023-03-05T07:50:13.071Z,17.42
2023-03-05T07:51:13.090Z,17.39
2023-03-05T07:52:13.146Z,17.45
2023-03-05T07:54:13.572Z,17.43
2023-03-05T07:55:13.206Z,17.45
2023-03-05T07:56:13.381Z,17.43
2023-03-05T07:57:13.266Z,17.39
2023-03-05T07:58:13.310Z,17.46
2023-03-05T07:59:13.319Z,17.42
2023-03-05T08:00:13.348Z,17.40
2023-03-05T08:01:13.660Z,17.45
2023-03-05T08:02:13.435Z,17.38
2023-03-05T08:03:13.425Z,17.42
2023-03-05T08:04:13.590Z,17.49
2023-03-05T08:05:13.484Z,17.43
2023-03-05T08:06:13.496Z,17.46
2023-03-05T08:07:13.529Z,17.43
2023-03-05T08:09:13.900Z,17.55
2023-03-05T08:10:13.642Z,17.45
2023-03-05T08:11:13.663Z,17.45
2023-03-05T08:12:13.663Z,17.45
2023-03-05T08:13:13.702Z,17.49
2023-03-05T08:14:13.744Z,17.47
2023-03-05T08:15:13.783Z,17.47
2023-03-05T08:16:14.229Z,17.53
2023-03-05T08:17:13.805Z,17.49
2023-03-05T08:19:13.864Z,17.51
2023-03-05T08:20:13.894Z,17.49
2023-03-05T08:21:13.931Z,17.47
2023-03-05T08:22:13.940Z,17.45
2023-03-05T08:23:14.290Z,17.53
2023-03-05T08:24:14.004Z,17.57
2023-03-05T08:25:14.154Z,17.58
2023-03-05T08:26:14.049Z,17.51
2023-03-05T08:27:14.070Z,17.51
2023-03-05T08:28:14.105Z,17.51
2023-03-05T08:29:14.143Z,17.53
2023-03-05T08:30:14.479Z,17.55
2023-03-05T08:31:14.202Z,17.51
2023-03-05T08:32:14.223Z,17.55
2023-03-05T08:33:14.270Z,17.60
2023-03-05T08:34:14.286Z,17.57
2023-03-05T08:35:14.298Z,17.51
2023-03-05T08:36:14.325Z,17.47
2023-03-05T08:37:14.342Z,17.57
2023-03-05T08:38:14.374Z,17.49
2023-03-05T08:39:14.397Z,17.55
2023-03-05T08:40:14.427Z,17.51
2023-03-05T08:41:14.471Z,17.54
2023-03-05T08:42:14.482Z,17.51
2023-03-05T08:43:14.780Z,17.54
2023-03-05T08:45:14.564Z,17.60
2023-03-05T08:46:14.631Z,17.55
2023-03-05T08:47:14.619Z,17.58
2023-03-05T08:48:14.649Z,17.60
2023-03-05T08:49:14.974Z,17.60
2023-03-05T08:51:14.743Z,17.54
2023-03-05T08:52:14.763Z,17.63
2023-03-05T08:53:14.808Z,17.60
2023-03-05T08:54:14.812Z,17.68
2023-03-05T08:55:15.144Z,17.71
2023-03-05T08:57:14.914Z,17.66
2023-03-05T08:58:14.938Z,17.73
2023-03-05T08:59:14.946Z,17.70
2023-03-05T09:00:14.984Z,17.73
2023-03-05T09:01:15.321Z,17.71
2023-03-05T09:02:15.057Z,17.62
2023-03-05T09:03:15.299Z,17.65
2023-03-05T09:04:15.084Z,17.74
2023-03-05T09:05:15.120Z,17.66
2023-03-05T09:06:15.152Z,17.68
2023-03-05T09:07:15.178Z,17.68
2023-03-05T09:08:15.533Z,17.68
2023-03-05T09:09:15.360Z,17.65
2023-03-05T09:10:15.248Z,17.70
2023-03-05T09:11:15.285Z,17.77
2023-03-05T09:12:15.305Z,17.74
2023-03-05T09:13:15.352Z,17.70
2023-03-05T09:14:15.403Z,17.76
2023-03-05T09:15:15.688Z,17.73
2023-03-05T09:16:15.476Z,17.77
2023-03-05T09:17:15.441Z,17.73
2023-03-05T09:18:15.495Z,17.77
2023-03-05T09:19:15.515Z,17.89
2023-03-05T09:20:15.620Z,17.94
2023-03-05T09:21:15.585Z,17.80
2023-03-05T09:22:15.880Z,17.81
2023-03-05T09:23:15.626Z,17.87
2023-03-05T09:24:15.647Z,17.83
2023-03-05T09:25:15.665Z,17.86
2023-03-05T09:26:15.732Z,17.95
2023-03-05T09:27:15.719Z,17.83
2023-03-05T09:28:15.744Z,17.80
2023-03-05T09:29:16.099Z,17.83
2023-03-05T09:30:15.793Z,17.83
2023-03-05T09:31:15.864Z,17.87
2023-03-05T09:32:15.900Z,17.92
2023-03-05T09:33:15.883Z,17.96
2023-03-05T09:34:15.932Z,17.91
2023-03-05T09:35:15.959Z,17.84
2023-03-05T09:36:16.267Z,17.86
2023-03-05T09:37:15.987Z,17.84
2023-03-05T09:38:16.034Z,17.84
2023-03-05T09:39:16.040Z,17.84
2023-03-05T09:41:16.102Z,17.84
2023-03-05T09:42:16.129Z,17.81
2023-03-05T09:43:16.456Z,17.70
2023-03-05T09:44:16.186Z,17.83
2023-03-05T09:45:16.235Z,17.79
2023-03-05T09:46:16.290Z,17.81
2023-03-05T09:47:16.266Z,17.79
2023-03-05T09:48:16.293Z,17.77
2023-03-05T09:49:16.320Z,17.71
2023-03-05T09:50:16.672Z,17.74
2023-03-05T09:51:16.381Z,17.66
2023-03-05T09:52:16.411Z,17.71
2023-03-05T09:53:16.432Z,17.71
2023-03-05T09:55:16.484Z,17.71
2023-03-05T09:56:16.520Z,17.76
2023-03-05T09:57:16.860Z,17.70
2023-03-05T09:58:16.567Z,17.74
2023-03-05T09:59:16.608Z,17.73
2023-03-05T10:00:16.687Z,17.73
2023-03-05T10:01:16.675Z,17.68
2023-03-05T10:02:16.687Z,17.76
2023-03-05T10:03:16.743Z,17.77
2023-03-05T10:04:17.108Z,17.74
2023-03-05T10:05:16.770Z,17.81
2023-03-05T10:06:16.803Z,17.71
2023-03-05T10:07:16.813Z,17.70
2023-03-05T10:08:16.843Z,17.74
2023-03-05T10:09:16.875Z,17.70
2023-03-05T10:10:16.896Z,17.79
2023-03-05T10:11:17.171Z,17.74
2023-03-05T10:12:16.991Z,17.68
2023-03-05T10:13:17.047Z,17.71
2023-03-05T10:14:17.014Z,17.71
2023-03-05T10:15:17.093Z,17.70
2023-03-05T10:18:17.446Z,17.71
2023-03-05T10:19:17.229Z,17.66
2023-03-05T10:21:17.203Z,17.66
2023-03-05T10:23:17.252Z,17.66
2023-03-05T10:24:17.330Z,17.71
2023-03-05T10:25:17.682Z,17.63
2023-03-05T10:26:17.353Z,17.55
2023-03-05T10:27:17.461Z,17.62
2023-03-05T10:28:17.391Z,17.63
2023-03-05T10:29:17.446Z,17.60
2023-03-05T10:30:17.467Z,17.66
2023-03-05T10:31:17.566Z,17.66
2023-03-05T10:32:18.040Z,17.71
2023-03-05T10:34:17.641Z,17.63
2023-03-05T10:35:17.678Z,17.63
2023-03-05T10:36:17.619Z,17.68
2023-03-05T10:37:17.665Z,17.71
2023-03-05T10:38:17.971Z,17.66
2023-03-05T10:39:17.698Z,17.63
2023-03-05T10:40:17.721Z,17.76
2023-03-05T10:41:17.882Z,17.73
2023-03-05T10:42:17.795Z,17.58
2023-03-05T10:43:17.817Z,17.65
2023-03-05T10:44:18.134Z,17.73
2023-03-05T10:45:17.849Z,17.63
2023-03-05T10:46:17.980Z,17.63
2023-03-05T10:47:17.907Z,17.70
2023-03-05T10:48:17.943Z,17.63
2023-03-05T10:49:17.966Z,17.73
2023-03-05T10:50:18.430Z,17.63
2023-03-05T10:51:18.018Z,17.73
2023-03-05T10:52:18.747Z,17.66
2023-03-05T10:53:18.071Z,17.65
2023-03-05T10:54:18.109Z,17.73
2023-03-05T10:55:18.132Z,17.58
2023-03-05T10:56:18.255Z,17.62
2023-03-05T10:57:18.481Z,17.71
2023-03-05T10:59:18.238Z,17.63
2023-03-05T11:00:18.349Z,17.68
2023-03-05T11:01:18.338Z,17.63
2023-03-05T11:02:18.364Z,17.62
2023-03-05T11:03:18.351Z,17.62
2023-03-05T11:04:18.685Z,17.57
2023-03-05T11:05:18.408Z,17.63
2023-03-05T11:06:18.447Z,17.62
2023-03-05T11:07:18.458Z,17.62
2023-03-05T11:08:18.475Z,17.62
2023-03-05T11:09:18.604Z,17.55
2023-03-05T11:10:18.589Z,17.57
2023-03-05T11:11:18.862Z,17.63
2023-03-05T11:12:18.599Z,17.58
2023-03-05T11:13:18.614Z,17.71
2023-03-05T11:14:18.647Z,17.60
2023-03-05T11:15:18.682Z,17.63
2023-03-05T11:16:20.868Z,17.66
2023-03-05T11:17:18.733Z,17.58
2023-03-05T11:18:19.050Z,17.55
2023-03-05T11:19:18.777Z,17.62
2023-03-05T11:20:18.843Z,17.55
2023-03-05T11:21:18.833Z,17.58
2023-03-05T11:22:18.885Z,17.57
2023-03-05T11:23:18.888Z,17.57
2023-03-05T11:24:18.917Z,17.57
2023-03-05T11:25:19.234Z,17.54
2023-03-05T11:26:18.967Z,17.60
2023-03-05T11:27:18.993Z,17.53
2023-03-05T11:28:30.785Z,17.47
2023-03-05T11:29:19.053Z,17.55
2023-03-05T11:30:19.078Z,17.49
2023-03-05T11:31:19.264Z,17.49
2023-03-05T11:32:19.486Z,17.45
2023-03-05T11:33:19.160Z,17.46
2023-03-05T11:34:19.185Z,17.49
2023-03-05T11:35:19.259Z,17.47
2023-03-05T11:36:19.238Z,17.49
2023-03-05T11:37:19.274Z,17.43
2023-03-05T11:38:19.322Z,17.49
2023-03-05T11:39:19.638Z,17.42
2023-03-05T11:40:19.374Z,17.46
2023-03-05T11:42:19.411Z,17.42
2023-03-05T11:43:19.426Z,17.47
2023-03-05T11:44:19.495Z,17.54
2023-03-05T11:45:19.496Z,17.53
2023-03-05T11:46:19.867Z,17.54
2023-03-05T11:47:19.553Z,17.58
2023-03-05T11:48:19.571Z,17.51
2023-03-05T11:49:19.594Z,17.57
2023-03-05T11:50:19.628Z,17.58
2023-03-05T11:51:19.676Z,17.58
2023-03-05T11:52:19.684Z,17.58
2023-03-05T11:53:20.003Z,17.66
2023-03-05T11:54:19.754Z,17.68
2023-03-05T11:56:19.793Z,17.73
2023-03-05T11:57:19.823Z,17.73
2023-03-05T11:58:19.846Z,17.66
2023-03-05T11:59:19.876Z,17.70
2023-03-05T12:00:20.998Z,17.71
2023-03-05T12:01:19.960Z,17.65
2023-03-05T12:02:20.018Z,17.71
2023-03-05T12:03:20.017Z,17.65
2023-03-05T12:04:20.030Z,17.73
2023-03-05T12:05:20.038Z,17.70
2023-03-05T12:06:20.075Z,17.65
2023-03-05T12:07:20.395Z,17.71
2023-03-05T12:08:20.122Z,17.66
2023-03-05T12:09:20.148Z,17.71
2023-03-05T12:10:20.204Z,17.68
2023-03-05T12:11:20.479Z,17.73
2023-03-05T12:12:20.238Z,17.66
2023-03-05T12:13:20.271Z,17.70
2023-03-05T12:14:20.627Z,17.76
2023-03-05T12:15:20.389Z,17.70
2023-03-05T12:16:20.393Z,17.76
2023-03-05T12:18:20.473Z,17.76
2023-03-05T12:19:20.426Z,17.73
2023-03-05T12:20:20.470Z,17.77
2023-03-05T12:21:20.781Z,17.79
2023-03-05T12:22:20.504Z,17.70
2023-03-05T12:25:20.581Z,17.80
2023-03-05T12:26:20.638Z,17.84
2023-03-05T12:27:20.643Z,17.84
2023-03-05T12:28:20.975Z,17.84
2023-03-05T12:29:20.694Z,17.83
2023-03-05T12:30:21.827Z,17.83
2023-03-05T12:31:20.785Z,17.87
2023-03-05T12:32:20.856Z,17.96
2023-03-05T12:33:20.811Z,17.84
2023-03-05T12:34:21.098Z,17.83
2023-03-05T12:35:20.891Z,17.95
2023-03-05T12:36:21.007Z,17.94
2023-03-05T12:37:20.923Z,17.87
2023-03-05T12:38:27.260Z,17.99
2023-03-05T12:39:20.978Z,17.96
2023-03-05T12:40:21.305Z,17.84
2023-03-05T12:41:21.027Z,17.94
2023-03-05T12:42:21.081Z,17.91
2023-03-05T12:43:21.088Z,17.87
2023-03-05T12:44:21.127Z,17.83
2023-03-05T12:45:21.137Z,17.83
2023-03-05T12:46:21.509Z,17.86
2023-03-05T12:47:21.216Z,17.89
2023-03-05T12:48:21.260Z,17.89
2023-03-05T12:49:21.257Z,17.80
2023-03-05T12:51:21.305Z,17.86
2023-03-05T12:52:21.341Z,17.86
2023-03-05T12:53:21.665Z,17.84
2023-03-05T12:54:21.402Z,17.84
2023-03-05T12:55:21.415Z,17.89
2023-03-05T12:56:21.450Z,17.81
2023-03-05T12:57:21.476Z,17.91
2023-03-05T12:58:21.510Z,17.86
2023-03-05T12:59:21.527Z,17.99
2023-03-05T13:00:21.850Z,17.92
2023-03-05T13:01:21.591Z,17.94
2023-03-05T13:02:21.611Z,17.96
2023-03-05T13:03:21.690Z,17.99
2023-03-05T13:04:21.660Z,17.94
2023-03-05T13:06:21.724Z,18.01
2023-03-05T13:09:22.095Z,17.98
2023-03-05T13:10:21.830Z,18.01
2023-03-05T13:11:21.851Z,18.01
2023-03-05T13:12:21.941Z,18.09
2023-03-05T13:13:21.904Z,18.09
2023-03-05T13:14:21.949Z,18.11
2023-03-05T13:15:22.266Z,18.13
2023-03-05T13:16:22.062Z,17.96
2023-03-05T13:17:22.012Z,18.02
2023-03-05T13:18:22.038Z,18.01
2023-03-05T13:19:22.075Z,17.98
2023-03-05T13:21:22.124Z,17.95
2023-03-05T13:22:22.156Z,17.94
2023-03-05T13:24:22.215Z,17.99
2023-03-05T13:26:22.269Z,18.07
2023-03-05T13:27:22.292Z,18.10
2023-03-05T13:28:22.569Z,18.09
2023-03-05T13:29:22.343Z,18.07
2023-03-05T13:31:22.471Z,18.07
2023-03-05T13:32:22.467Z,18.05
2023-03-05T13:33:22.462Z,18.02
2023-03-05T13:34:22.511Z,17.96
2023-03-05T13:35:22.837Z,18.01
2023-03-05T13:36:22.539Z,18.10
2023-03-05T13:37:22.570Z,17.98
2023-03-05T13:38:22.594Z,17.99
2023-03-05T13:39:22.614Z,18.04
2023-03-05T13:40:22.662Z,17.99
2023-03-05T13:41:22.679Z,17.95
2023-03-05T13:42:22.728Z,17.92
2023-03-05T13:43:22.828Z,17.95
2023-03-05T13:44:22.758Z,18.01
2023-03-05T13:45:22.781Z,17.98